sensor_id;sensor_type;location;lat;lon;timestamp;temperature;humidity
48666;DHT22;34452;50.796;4.994;2024-02-21T00:00:14;9.20;99.90
48666;DHT22;34452;50.796;4.994;2024-02-21T00:02:40;9.20;99.90
48666;DHT22;34452;50.796;4.994;2024-02-21T00:05:06;9.20;99.90
48666;DHT22;34452;50.796;4.994;2024-02-21T00:07:31;9.20;99.90
48666;DHT22;34452;50.796;4.994;2024-02-21T00:09:57;9.20;99.90
48666;DHT22;34452;50.796;4.994;2024-02-21T00:12:22;9.20;99.90
48666;DHT22;34452;50.796;4.994;2024-02-21T00:14:48;9.20;99.90
48666;DHT22;34452;50.796;4.994;2024-02-21T00:17:13;9.30;99.90
48666;DHT22;34452;50.796;4.994;2024-02-21T00:19:39;9.20;99.90
48666;DHT22;34452;50.796;4.994;2024-02-21T00:22:04;9.30;99.90
48666;DHT22;34452;50.796;4.994;2024-02-21T00:24:30;9.30;99.90
48666;DHT22;34452;50.796;4.994;2024-02-21T00:26:56;9.30;99.90
48666;DHT22;34452;50.796;4.994;2024-02-21T00:29:21;9.20;99.90
48666;DHT22;34452;50.796;4.994;2024-02-21T00:31:47;9.20;99.90
48666;DHT22;34452;50.796;4.994;2024-02-21T00:34:13;9.20;99.90
48666;DHT22;34452;50.796;4.994;2024-02-21T00:36:38;9.20;99.90
48666;DHT22;34452;50.796;4.994;2024-02-21T00:39:04;9.20;99.90
48666;DHT22;34452;50.796;4.994;2024-02-21T00:41:30;9.20;99.90
48666;DHT22;34452;50.796;4.994;2024-02-21T00:43:55;9.20;99.90
48666;DHT22;34452;50.796;4.994;2024-02-21T00:46:21;9.20;99.90
48666;DHT22;34452;50.796;4.994;2024-02-21T00:48:46;9.20;99.90
48666;DHT22;34452;50.796;4.994;2024-02-21T00:51:12;9.20;99.90
48666;DHT22;34452;50.796;4.994;2024-02-21T00:53:37;9.20;99.90
48666;DHT22;34452;50.796;4.994;2024-02-21T00:56:06;9.20;99.90
48666;DHT22;34452;50.796;4.994;2024-02-21T00:58:32;9.30;99.90
48666;DHT22;34452;50.796;4.994;2024-02-21T01:00:57;9.30;99.90
48666;DHT22;34452;50.796;4.994;2024-02-21T01:03:23;9.20;99.90
48666;DHT22;34452;50.796;4.994;2024-02-21T01:05:48;9.30;99.90
48666;DHT22;34452;50.796;4.994;2024-02-21T01:08:14;9.20;99.90
48666;DHT22;34452;50.796;4.994;2024-02-21T01:10:40;9.20;99.90
48666;DHT22;34452;50.796;4.994;2024-02-21T01:13:05;9.20;99.90
48666;DHT22;34452;50.796;4.994;2024-02-21T01:15:32;9.20;99.90
48666;DHT22;34452;50.796;4.994;2024-02-21T01:17:58;9.20;99.90
48666;DHT22;34452;50.796;4.994;2024-02-21T01:20:24;9.20;99.90
48666;DHT22;34452;50.796;4.994;2024-02-21T01:22:49;9.20;99.90
48666;DHT22;34452;50.796;4.994;2024-02-21T01:25:15;9.20;99.90
48666;DHT22;34452;50.796;4.994;2024-02-21T01:27:41;9.20;99.90
48666;DHT22;34452;50.796;4.994;2024-02-21T01:30:07;9.10;99.90
48666;DHT22;34452;50.796;4.994;2024-02-21T01:32:32;9.10;99.90
48666;DHT22;34452;50.796;4.994;2024-02-21T01:34:58;9.10;99.90
48666;DHT22;34452;50.796;4.994;2024-02-21T01:37:24;9.20;99.90
48666;DHT22;34452;50.796;4.994;2024-02-21T01:39:49;9.10;99.90
48666;DHT22;34452;50.796;4.994;2024-02-21T01:42:15;9.20;99.90
48666;DHT22;34452;50.796;4.994;2024-02-21T01:44:41;9.20;99.90
48666;DHT22;34452;50.796;4.994;2024-02-21T01:47:07;9.10;99.90
48666;DHT22;34452;50.796;4.994;2024-02-21T01:49:33;9.10;99.90
48666;DHT22;34452;50.796;4.994;2024-02-21T01:51:59;9.10;99.90
48666;DHT22;34452;50.796;4.994;2024-02-21T01:54:25;9.10;99.90
48666;DHT22;34452;50.796;4.994;2024-02-21T01:56:50;9.10;99.90
48666;DHT22;34452;50.796;4.994;2024-02-21T01:59:18;9.10;99.90
48666;DHT22;34452;50.796;4.994;2024-02-21T02:01:44;9.10;99.90
48666;DHT22;34452;50.796;4.994;2024-02-21T02:04:11;9.10;99.90
48666;DHT22;34452;50.796;4.994;2024-02-21T02:06:37;9.10;99.90
48666;DHT22;34452;50.796;4.994;2024-02-21T02:09:03;9.10;99.90
48666;DHT22;34452;50.796;4.994;2024-02-21T02:11:28;9.00;99.90
48666;DHT22;34452;50.796;4.994;2024-02-21T02:13:54;9.10;99.90
48666;DHT22;34452;50.796;4.994;2024-02-21T02:16:19;9.00;99.90
48666;DHT22;34452;50.796;4.994;2024-02-21T02:18:45;9.00;99.90
48666;DHT22;34452;50.796;4.994;2024-02-21T02:21:23;9.00;99.90
48666;DHT22;34452;50.796;4.994;2024-02-21T02:23:49;9.00;99.90
48666;DHT22;34452;50.796;4.994;2024-02-21T02:26:15;9.00;99.90
48666;DHT22;34452;50.796;4.994;2024-02-21T02:28:40;9.00;99.90
48666;DHT22;34452;50.796;4.994;2024-02-21T02:31:06;9.00;99.90
48666;DHT22;34452;50.796;4.994;2024-02-21T02:33:32;8.90;99.90
48666;DHT22;34452;50.796;4.994;2024-02-21T02:35:57;9.00;99.90
48666;DHT22;34452;50.796;4.994;2024-02-21T02:38:24;8.90;99.90
48666;DHT22;34452;50.796;4.994;2024-02-21T02:40:49;8.90;99.90
48666;DHT22;34452;50.796;4.994;2024-02-21T02:43:15;8.90;99.90
48666;DHT22;34452;50.796;4.994;2024-02-21T02:45:40;9.00;99.90
48666;DHT22;34452;50.796;4.994;2024-02-21T02:48:06;8.90;99.90
48666;DHT22;34452;50.796;4.994;2024-02-21T02:50:32;9.00;99.90
48666;DHT22;34452;50.796;4.994;2024-02-21T02:52:57;9.00;99.90
48666;DHT22;34452;50.796;4.994;2024-02-21T02:55:23;8.90;99.90
48666;DHT22;34452;50.796;4.994;2024-02-21T02:57:48;9.00;99.90
48666;DHT22;34452;50.796;4.994;2024-02-21T03:00:14;9.00;99.90
48666;DHT22;34452;50.796;4.994;2024-02-21T03:02:41;9.00;99.90
48666;DHT22;34452;50.796;4.994;2024-02-21T03:05:20;9.00;99.90
48666;DHT22;34452;50.796;4.994;2024-02-21T03:07:46;9.00;99.90
48666;DHT22;34452;50.796;4.994;2024-02-21T03:10:12;9.00;99.90
48666;DHT22;34452;50.796;4.994;2024-02-21T03:12:38;9.00;99.90
48666;DHT22;34452;50.796;4.994;2024-02-21T03:15:04;9.00;99.90
48666;DHT22;34452;50.796;4.994;2024-02-21T03:17:30;9.00;99.90
48666;DHT22;34452;50.796;4.994;2024-02-21T03:19:56;9.00;99.90
48666;DHT22;34452;50.796;4.994;2024-02-21T03:22:22;9.00;99.90
48666;DHT22;34452;50.796;4.994;2024-02-21T03:24:48;9.00;99.90
48666;DHT22;34452;50.796;4.994;2024-02-21T03:27:13;9.00;99.90
48666;DHT22;34452;50.796;4.994;2024-02-21T03:29:39;9.00;99.90
48666;DHT22;34452;50.796;4.994;2024-02-21T03:32:04;9.00;99.90
48666;DHT22;34452;50.796;4.994;2024-02-21T03:34:30;9.00;99.90
48666;DHT22;34452;50.796;4.994;2024-02-21T03:36:56;9.00;99.90
48666;DHT22;34452;50.796;4.994;2024-02-21T03:39:21;9.00;99.90
48666;DHT22;34452;50.796;4.994;2024-02-21T03:41:47;9.00;99.90
48666;DHT22;34452;50.796;4.994;2024-02-21T03:44:13;9.00;99.90
48666;DHT22;34452;50.796;4.994;2024-02-21T03:46:39;9.00;99.90
48666;DHT22;34452;50.796;4.994;2024-02-21T03:49:05;9.00;99.90
48666;DHT22;34452;50.796;4.994;2024-02-21T03:51:31;9.00;99.90
48666;DHT22;34452;50.796;4.994;2024-02-21T03:53:56;9.00;99.90
48666;DHT22;34452;50.796;4.994;2024-02-21T03:56:22;8.90;99.90
48666;DHT22;34452;50.796;4.994;2024-02-21T03:58:47;9.00;99.90
48666;DHT22;34452;50.796;4.994;2024-02-21T04:01:14;9.00;99.90
48666;DHT22;34452;50.796;4.994;2024-02-21T04:03:40;8.90;99.90
48666;DHT22;34452;50.796;4.994;2024-02-21T04:06:06;8.90;99.90
48666;DHT22;34452;50.796;4.994;2024-02-21T04:08:35;9.00;99.90
48666;DHT22;34452;50.796;4.994;2024-02-21T04:11:01;8.90;99.90
48666;DHT22;34452;50.796;4.994;2024-02-21T04:13:27;8.90;99.90
48666;DHT22;34452;50.796;4.994;2024-02-21T04:15:53;8.90;99.90
48666;DHT22;34452;50.796;4.994;2024-02-21T04:18:18;8.90;99.90
48666;DHT22;34452;50.796;4.994;2024-02-21T04:20:44;8.90;99.90
48666;DHT22;34452;50.796;4.994;2024-02-21T04:23:10;8.90;99.90
48666;DHT22;34452;50.796;4.994;2024-02-21T04:25:36;8.90;99.90
48666;DHT22;34452;50.796;4.994;2024-02-21T04:28:02;8.90;99.90
48666;DHT22;34452;50.796;4.994;2024-02-21T04:30:28;8.80;99.90
48666;DHT22;34452;50.796;4.994;2024-02-21T04:32:54;8.90;99.90
48666;DHT22;34452;50.796;4.994;2024-02-21T04:35:21;8.80;99.90
48666;DHT22;34452;50.796;4.994;2024-02-21T04:37:47;8.80;99.90
48666;DHT22;34452;50.796;4.994;2024-02-21T04:42:43;8.80;99.90
48666;DHT22;34452;50.796;4.994;2024-02-21T04:45:10;8.80;99.90
48666;DHT22;34452;50.796;4.994;2024-02-21T04:47:36;8.80;99.90
48666;DHT22;34452;50.796;4.994;2024-02-21T04:50:01;8.90;99.90
48666;DHT22;34452;50.796;4.994;2024-02-21T04:52:27;8.80;99.90
48666;DHT22;34452;50.796;4.994;2024-02-21T04:54:53;8.90;99.90
48666;DHT22;34452;50.796;4.994;2024-02-21T04:57:18;8.80;99.90
48666;DHT22;34452;50.796;4.994;2024-02-21T04:59:44;8.90;99.90
48666;DHT22;34452;50.796;4.994;2024-02-21T05:02:10;8.90;99.90
48666;DHT22;34452;50.796;4.994;2024-02-21T05:04:36;8.90;99.90
48666;DHT22;34452;50.796;4.994;2024-02-21T05:07:03;8.90;99.90
48666;DHT22;34452;50.796;4.994;2024-02-21T05:09:29;8.90;99.90
48666;DHT22;34452;50.796;4.994;2024-02-21T05:11:55;8.90;99.90
48666;DHT22;34452;50.796;4.994;2024-02-21T05:14:20;8.90;99.90
48666;DHT22;34452;50.796;4.994;2024-02-21T05:16:46;8.90;99.90
48666;DHT22;34452;50.796;4.994;2024-02-21T05:19:11;8.90;99.90
48666;DHT22;34452;50.796;4.994;2024-02-21T05:21:37;8.90;99.90
48666;DHT22;34452;50.796;4.994;2024-02-21T05:24:03;8.90;99.90
48666;DHT22;34452;50.796;4.994;2024-02-21T05:26:29;8.80;99.90
48666;DHT22;34452;50.796;4.994;2024-02-21T05:28:54;8.80;99.90
48666;DHT22;34452;50.796;4.994;2024-02-21T05:31:20;8.80;99.90
48666;DHT22;34452;50.796;4.994;2024-02-21T05:33:46;8.80;99.90
48666;DHT22;34452;50.796;4.994;2024-02-21T05:36:12;8.80;99.90
48666;DHT22;34452;50.796;4.994;2024-02-21T05:38:38;8.80;99.90
48666;DHT22;34452;50.796;4.994;2024-02-21T05:41:04;8.80;99.90
48666;DHT22;34452;50.796;4.994;2024-02-21T05:43:31;8.80;99.90
48666;DHT22;34452;50.796;4.994;2024-02-21T05:45:56;8.80;99.90
48666;DHT22;34452;50.796;4.994;2024-02-21T05:48:24;8.70;99.90
48666;DHT22;34452;50.796;4.994;2024-02-21T05:50:51;8.70;99.90
48666;DHT22;34452;50.796;4.994;2024-02-21T05:53:17;8.70;99.90
48666;DHT22;34452;50.796;4.994;2024-02-21T05:55:43;8.70;99.90
48666;DHT22;34452;50.796;4.994;2024-02-21T05:58:08;8.70;99.90
48666;DHT22;34452;50.796;4.994;2024-02-21T06:00:39;8.60;99.90
48666;DHT22;34452;50.796;4.994;2024-02-21T06:03:04;8.70;99.90
48666;DHT22;34452;50.796;4.994;2024-02-21T06:05:30;8.60;99.90
48666;DHT22;34452;50.796;4.994;2024-02-21T06:07:57;8.60;99.90
48666;DHT22;34452;50.796;4.994;2024-02-21T06:10:22;8.60;99.90
48666;DHT22;34452;50.796;4.994;2024-02-21T06:12:48;8.60;99.90
48666;DHT22;34452;50.796;4.994;2024-02-21T06:15:14;8.50;99.90
48666;DHT22;34452;50.796;4.994;2024-02-21T06:17:39;8.50;99.90
48666;DHT22;34452;50.796;4.994;2024-02-21T06:20:05;8.50;99.90
48666;DHT22;34452;50.796;4.994;2024-02-21T06:22:31;8.50;99.90
48666;DHT22;34452;50.796;4.994;2024-02-21T06:24:57;8.50;99.90
48666;DHT22;34452;50.796;4.994;2024-02-21T06:27:22;8.50;99.90
48666;DHT22;34452;50.796;4.994;2024-02-21T06:29:49;8.50;99.90
48666;DHT22;34452;50.796;4.994;2024-02-21T06:32:15;8.40;99.90
48666;DHT22;34452;50.796;4.994;2024-02-21T06:34:41;8.40;99.90
48666;DHT22;34452;50.796;4.994;2024-02-21T06:37:06;8.40;99.90
48666;DHT22;34452;50.796;4.994;2024-02-21T06:39:32;8.40;99.90
48666;DHT22;34452;50.796;4.994;2024-02-21T06:41:57;8.40;99.90
48666;DHT22;34452;50.796;4.994;2024-02-21T06:44:24;8.40;99.90
48666;DHT22;34452;50.796;4.994;2024-02-21T06:46:50;8.40;99.90
48666;DHT22;34452;50.796;4.994;2024-02-21T06:49:16;8.30;99.90
48666;DHT22;34452;50.796;4.994;2024-02-21T06:51:48;8.30;99.90
48666;DHT22;34452;50.796;4.994;2024-02-21T06:54:14;8.30;99.90
48666;DHT22;34452;50.796;4.994;2024-02-21T06:56:40;8.30;99.90
48666;DHT22;34452;50.796;4.994;2024-02-21T06:59:05;8.30;99.90
48666;DHT22;34452;50.796;4.994;2024-02-21T07:01:31;8.30;99.90
48666;DHT22;34452;50.796;4.994;2024-02-21T07:03:57;8.30;99.90
48666;DHT22;34452;50.796;4.994;2024-02-21T07:06:23;8.30;99.90
48666;DHT22;34452;50.796;4.994;2024-02-21T07:08:49;8.30;99.90
48666;DHT22;34452;50.796;4.994;2024-02-21T07:11:14;8.30;99.90
48666;DHT22;34452;50.796;4.994;2024-02-21T07:13:40;8.30;99.90
48666;DHT22;34452;50.796;4.994;2024-02-21T07:16:06;8.30;99.90
48666;DHT22;34452;50.796;4.994;2024-02-21T07:18:32;8.30;99.90
48666;DHT22;34452;50.796;4.994;2024-02-21T07:20:58;8.30;99.90
48666;DHT22;34452;50.796;4.994;2024-02-21T07:23:24;8.30;99.90
48666;DHT22;34452;50.796;4.994;2024-02-21T07:25:49;8.30;99.90
48666;DHT22;34452;50.796;4.994;2024-02-21T07:28:15;8.30;99.90
48666;DHT22;34452;50.796;4.994;2024-02-21T07:30:41;8.40;99.90
48666;DHT22;34452;50.796;4.994;2024-02-21T07:33:07;8.30;99.90
48666;DHT22;34452;50.796;4.994;2024-02-21T07:35:33;8.40;99.90
48666;DHT22;34452;50.796;4.994;2024-02-21T07:37:58;8.40;99.90
48666;DHT22;34452;50.796;4.994;2024-02-21T07:40:24;8.40;99.90
48666;DHT22;34452;50.796;4.994;2024-02-21T07:42:50;8.40;99.90
48666;DHT22;34452;50.796;4.994;2024-02-21T07:45:15;8.40;99.90
48666;DHT22;34452;50.796;4.994;2024-02-21T07:47:41;8.40;99.90
48666;DHT22;34452;50.796;4.994;2024-02-21T07:50:07;8.50;99.90
48666;DHT22;34452;50.796;4.994;2024-02-21T07:52:32;8.50;99.90
48666;DHT22;34452;50.796;4.994;2024-02-21T07:54:58;8.50;99.90
48666;DHT22;34452;50.796;4.994;2024-02-21T07:57:25;8.60;99.90
48666;DHT22;34452;50.796;4.994;2024-02-21T07:59:50;8.60;99.90
48666;DHT22;34452;50.796;4.994;2024-02-21T08:02:16;8.60;99.90
48666;DHT22;34452;50.796;4.994;2024-02-21T08:04:42;8.60;99.90
48666;DHT22;34452;50.796;4.994;2024-02-21T08:07:09;8.60;99.90
48666;DHT22;34452;50.796;4.994;2024-02-21T08:09:35;8.70;99.90
48666;DHT22;34452;50.796;4.994;2024-02-21T08:12:03;8.70;99.90
48666;DHT22;34452;50.796;4.994;2024-02-21T08:14:30;8.80;99.90
48666;DHT22;34452;50.796;4.994;2024-02-21T08:16:56;8.80;99.90
48666;DHT22;34452;50.796;4.994;2024-02-21T08:19:21;8.80;99.90
48666;DHT22;34452;50.796;4.994;2024-02-21T08:21:50;8.90;99.90
48666;DHT22;34452;50.796;4.994;2024-02-21T08:24:15;9.00;99.90
48666;DHT22;34452;50.796;4.994;2024-02-21T08:26:41;9.00;99.90
48666;DHT22;34452;50.796;4.994;2024-02-21T08:29:07;9.00;99.90
48666;DHT22;34452;50.796;4.994;2024-02-21T08:31:33;9.00;99.90
48666;DHT22;34452;50.796;4.994;2024-02-21T08:34:00;9.10;99.90
48666;DHT22;34452;50.796;4.994;2024-02-21T08:36:32;9.10;99.90
48666;DHT22;34452;50.796;4.994;2024-02-21T08:38:58;9.10;99.90
48666;DHT22;34452;50.796;4.994;2024-02-21T08:41:23;9.20;99.90
48666;DHT22;34452;50.796;4.994;2024-02-21T08:43:53;9.20;99.90
48666;DHT22;34452;50.796;4.994;2024-02-21T08:46:19;9.20;99.90
48666;DHT22;34452;50.796;4.994;2024-02-21T08:48:46;9.30;99.90
48666;DHT22;34452;50.796;4.994;2024-02-21T08:51:12;9.30;99.90
48666;DHT22;34452;50.796;4.994;2024-02-21T08:53:38;9.30;99.90
48666;DHT22;34452;50.796;4.994;2024-02-21T08:56:04;9.30;99.90
48666;DHT22;34452;50.796;4.994;2024-02-21T08:58:29;9.40;99.90
48666;DHT22;34452;50.796;4.994;2024-02-21T09:00:55;9.50;99.90
48666;DHT22;34452;50.796;4.994;2024-02-21T09:03:22;9.40;99.90
48666;DHT22;34452;50.796;4.994;2024-02-21T09:05:47;9.50;99.90
48666;DHT22;34452;50.796;4.994;2024-02-21T09:08:13;9.50;99.90
48666;DHT22;34452;50.796;4.994;2024-02-21T09:10:42;9.50;99.90
48666;DHT22;34452;50.796;4.994;2024-02-21T09:13:07;9.50;99.90
48666;DHT22;34452;50.796;4.994;2024-02-21T09:15:34;9.50;99.90
48666;DHT22;34452;50.796;4.994;2024-02-21T09:17:59;9.50;99.90
48666;DHT22;34452;50.796;4.994;2024-02-21T09:20:25;9.50;99.90
48666;DHT22;34452;50.796;4.994;2024-02-21T09:22:51;9.60;99.90
48666;DHT22;34452;50.796;4.994;2024-02-21T09:25:17;9.60;99.90
48666;DHT22;34452;50.796;4.994;2024-02-21T09:27:43;9.70;99.90
48666;DHT22;34452;50.796;4.994;2024-02-21T09:30:09;9.70;99.90
48666;DHT22;34452;50.796;4.994;2024-02-21T09:32:35;9.70;99.90
48666;DHT22;34452;50.796;4.994;2024-02-21T09:35:01;9.80;99.90
48666;DHT22;34452;50.796;4.994;2024-02-21T09:37:27;9.80;99.90
48666;DHT22;34452;50.796;4.994;2024-02-21T09:39:52;9.90;99.90
48666;DHT22;34452;50.796;4.994;2024-02-21T09:42:21;10.00;99.90
48666;DHT22;34452;50.796;4.994;2024-02-21T09:44:47;10.00;99.90
48666;DHT22;34452;50.796;4.994;2024-02-21T09:50:04;10.10;99.90
48666;DHT22;34452;50.796;4.994;2024-02-21T09:52:30;10.20;99.90
48666;DHT22;34452;50.796;4.994;2024-02-21T09:54:56;10.30;99.90
48666;DHT22;34452;50.796;4.994;2024-02-21T09:57:23;10.40;99.90
48666;DHT22;34452;50.796;4.994;2024-02-21T09:59:51;10.40;99.90
48666;DHT22;34452;50.796;4.994;2024-02-21T10:02:17;10.50;99.90
48666;DHT22;34452;50.796;4.994;2024-02-21T10:04:43;10.60;99.90
48666;DHT22;34452;50.796;4.994;2024-02-21T10:07:08;10.70;99.90
48666;DHT22;34452;50.796;4.994;2024-02-21T10:09:34;10.70;99.90
48666;DHT22;34452;50.796;4.994;2024-02-21T10:12:10;10.70;99.90
48666;DHT22;34452;50.796;4.994;2024-02-21T10:14:36;10.80;99.90
48666;DHT22;34452;50.796;4.994;2024-02-21T10:17:02;10.80;99.90
48666;DHT22;34452;50.796;4.994;2024-02-21T10:19:29;10.80;99.90
48666;DHT22;34452;50.796;4.994;2024-02-21T10:22:13;10.90;99.90
48666;DHT22;34452;50.796;4.994;2024-02-21T10:24:41;10.90;99.90
48666;DHT22;34452;50.796;4.994;2024-02-21T10:27:08;10.90;99.90
48666;DHT22;34452;50.796;4.994;2024-02-21T10:29:34;11.00;99.90
48666;DHT22;34452;50.796;4.994;2024-02-21T10:32:07;11.00;99.90
48666;DHT22;34452;50.796;4.994;2024-02-21T10:34:33;11.10;99.90
48666;DHT22;34452;50.796;4.994;2024-02-21T10:37:17;11.10;99.90
48666;DHT22;34452;50.796;4.994;2024-02-21T10:39:42;11.20;99.90
48666;DHT22;34452;50.796;4.994;2024-02-21T10:42:12;11.30;99.90
48666;DHT22;34452;50.796;4.994;2024-02-21T10:44:40;11.40;99.90
48666;DHT22;34452;50.796;4.994;2024-02-21T10:47:08;11.40;99.90
48666;DHT22;34452;50.796;4.994;2024-02-21T10:49:33;11.50;99.90
48666;DHT22;34452;50.796;4.994;2024-02-21T10:52:06;11.50;99.90
48666;DHT22;34452;50.796;4.994;2024-02-21T10:54:39;11.50;99.90
48666;DHT22;34452;50.796;4.994;2024-02-21T10:57:06;11.50;99.90
48666;DHT22;34452;50.796;4.994;2024-02-21T10:59:32;11.60;99.90
48666;DHT22;34452;50.796;4.994;2024-02-21T11:01:57;11.60;99.90
48666;DHT22;34452;50.796;4.994;2024-02-21T11:04:25;11.70;99.90
48666;DHT22;34452;50.796;4.994;2024-02-21T11:06:51;11.70;99.90
48666;DHT22;34452;50.796;4.994;2024-02-21T11:09:17;11.80;99.90
48666;DHT22;34452;50.796;4.994;2024-02-21T11:11:43;11.80;99.90
48666;DHT22;34452;50.796;4.994;2024-02-21T11:14:10;11.80;99.90
48666;DHT22;34452;50.796;4.994;2024-02-21T11:16:39;11.80;99.90
48666;DHT22;34452;50.796;4.994;2024-02-21T11:19:08;11.80;99.90
48666;DHT22;34452;50.796;4.994;2024-02-21T11:21:36;11.80;99.90
48666;DHT22;34452;50.796;4.994;2024-02-21T11:24:02;11.80;99.90
48666;DHT22;34452;50.796;4.994;2024-02-21T11:26:29;11.80;99.90
48666;DHT22;34452;50.796;4.994;2024-02-21T11:29:05;11.90;99.90
48666;DHT22;34452;50.796;4.994;2024-02-21T11:31:40;11.90;99.90
48666;DHT22;34452;50.796;4.994;2024-02-21T11:34:09;11.80;99.90
48666;DHT22;34452;50.796;4.994;2024-02-21T11:36:36;11.90;99.90
48666;DHT22;34452;50.796;4.994;2024-02-21T11:39:05;11.90;99.90
48666;DHT22;34452;50.796;4.994;2024-02-21T11:41:35;11.90;99.90
48666;DHT22;34452;50.796;4.994;2024-02-21T11:44:00;12.00;99.90
48666;DHT22;34452;50.796;4.994;2024-02-21T11:46:26;12.00;99.90
48666;DHT22;34452;50.796;4.994;2024-02-21T11:48:51;12.10;99.90
48666;DHT22;34452;50.796;4.994;2024-02-21T11:51:26;12.10;99.90
48666;DHT22;34452;50.796;4.994;2024-02-21T11:53:52;12.10;99.90
48666;DHT22;34452;50.796;4.994;2024-02-21T11:56:18;12.10;99.90
48666;DHT22;34452;50.796;4.994;2024-02-21T11:58:48;12.10;99.90
48666;DHT22;34452;50.796;4.994;2024-02-21T12:01:14;12.00;99.90
48666;DHT22;34452;50.796;4.994;2024-02-21T12:03:39;12.00;99.90
48666;DHT22;34452;50.796;4.994;2024-02-21T12:06:07;11.90;99.90
48666;DHT22;34452;50.796;4.994;2024-02-21T12:08:44;11.90;99.90
48666;DHT22;34452;50.796;4.994;2024-02-21T12:11:22;11.90;99.90
48666;DHT22;34452;50.796;4.994;2024-02-21T12:14:09;11.80;99.90
48666;DHT22;34452;50.796;4.994;2024-02-21T12:16:34;11.90;99.90
48666;DHT22;34452;50.796;4.994;2024-02-21T12:19:02;11.80;99.90
48666;DHT22;34452;50.796;4.994;2024-02-21T12:21:32;11.80;99.90
48666;DHT22;34452;50.796;4.994;2024-02-21T12:23:58;11.80;99.90
48666;DHT22;34452;50.796;4.994;2024-02-21T12:26:24;11.70;99.90
48666;DHT22;34452;50.796;4.994;2024-02-21T12:28:50;11.60;99.90
48666;DHT22;34452;50.796;4.994;2024-02-21T12:31:16;11.60;99.90
48666;DHT22;34452;50.796;4.994;2024-02-21T12:33:42;11.60;99.90
48666;DHT22;34452;50.796;4.994;2024-02-21T12:36:08;11.50;99.90
48666;DHT22;34452;50.796;4.994;2024-02-21T12:38:34;11.60;99.90
48666;DHT22;34452;50.796;4.994;2024-02-21T12:41:00;11.60;99.90
48666;DHT22;34452;50.796;4.994;2024-02-21T12:43:26;11.60;99.90
48666;DHT22;34452;50.796;4.994;2024-02-21T12:45:52;11.60;99.90
48666;DHT22;34452;50.796;4.994;2024-02-21T12:48:18;11.70;99.90
48666;DHT22;34452;50.796;4.994;2024-02-21T12:50:50;11.70;99.90
48666;DHT22;34452;50.796;4.994;2024-02-21T12:53:19;11.70;99.90
48666;DHT22;34452;50.796;4.994;2024-02-21T12:55:47;11.70;99.90
48666;DHT22;34452;50.796;4.994;2024-02-21T12:58:14;11.70;99.90
48666;DHT22;34452;50.796;4.994;2024-02-21T13:00:40;11.70;99.90
48666;DHT22;34452;50.796;4.994;2024-02-21T13:03:05;11.70;99.90
48666;DHT22;34452;50.796;4.994;2024-02-21T13:05:31;11.70;99.90
48666;DHT22;34452;50.796;4.994;2024-02-21T13:07:58;11.70;99.90
48666;DHT22;34452;50.796;4.994;2024-02-21T13:10:23;11.70;99.90
48666;DHT22;34452;50.796;4.994;2024-02-21T13:12:49;11.60;99.90
48666;DHT22;34452;50.796;4.994;2024-02-21T13:15:15;11.60;99.90
48666;DHT22;34452;50.796;4.994;2024-02-21T13:17:46;11.60;99.90
48666;DHT22;34452;50.796;4.994;2024-02-21T13:20:11;11.60;99.90
48666;DHT22;34452;50.796;4.994;2024-02-21T13:22:37;11.60;99.90
48666;DHT22;34452;50.796;4.994;2024-02-21T13:25:06;11.50;99.90
48666;DHT22;34452;50.796;4.994;2024-02-21T13:27:35;11.50;99.90
48666;DHT22;34452;50.796;4.994;2024-02-21T13:30:01;11.50;99.90
48666;DHT22;34452;50.796;4.994;2024-02-21T13:32:31;11.50;99.90
48666;DHT22;34452;50.796;4.994;2024-02-21T13:34:57;11.40;99.90
48666;DHT22;34452;50.796;4.994;2024-02-21T13:37:26;11.40;99.90
48666;DHT22;34452;50.796;4.994;2024-02-21T13:39:52;11.40;99.90
48666;DHT22;34452;50.796;4.994;2024-02-21T13:42:18;11.40;99.90
48666;DHT22;34452;50.796;4.994;2024-02-21T13:44:44;11.40;99.90
48666;DHT22;34452;50.796;4.994;2024-02-21T13:47:10;11.30;99.90
48666;DHT22;34452;50.796;4.994;2024-02-21T13:49:36;11.30;99.90
48666;DHT22;34452;50.796;4.994;2024-02-21T13:52:02;11.30;99.90
48666;DHT22;34452;50.796;4.994;2024-02-21T13:54:28;11.30;99.90
48666;DHT22;34452;50.796;4.994;2024-02-21T13:56:53;11.30;99.90
48666;DHT22;34452;50.796;4.994;2024-02-21T13:59:19;11.20;99.90
48666;DHT22;34452;50.796;4.994;2024-02-21T14:01:45;11.20;99.90
48666;DHT22;34452;50.796;4.994;2024-02-21T14:04:11;11.20;99.90
48666;DHT22;34452;50.796;4.994;2024-02-21T14:06:37;11.20;99.90
48666;DHT22;34452;50.796;4.994;2024-02-21T14:09:14;11.20;99.90
48666;DHT22;34452;50.796;4.994;2024-02-21T14:11:40;11.20;99.90
48666;DHT22;34452;50.796;4.994;2024-02-21T14:14:06;11.10;99.90
48666;DHT22;34452;50.796;4.994;2024-02-21T14:16:32;11.10;99.90
48666;DHT22;34452;50.796;4.994;2024-02-21T14:18:58;11.00;99.90
48666;DHT22;34452;50.796;4.994;2024-02-21T14:21:24;11.00;99.90
48666;DHT22;34452;50.796;4.994;2024-02-21T14:23:50;11.00;99.90
48666;DHT22;34452;50.796;4.994;2024-02-21T14:26:15;11.00;99.90
48666;DHT22;34452;50.796;4.994;2024-02-21T14:28:41;11.00;99.90
48666;DHT22;34452;50.796;4.994;2024-02-21T14:31:07;11.00;99.90
48666;DHT22;34452;50.796;4.994;2024-02-21T14:33:34;10.90;99.90
48666;DHT22;34452;50.796;4.994;2024-02-21T14:36:00;10.90;99.90
48666;DHT22;34452;50.796;4.994;2024-02-21T14:38:26;10.90;99.90
48666;DHT22;34452;50.796;4.994;2024-02-21T14:40:52;10.90;99.90
48666;DHT22;34452;50.796;4.994;2024-02-21T14:43:18;10.90;99.90
48666;DHT22;34452;50.796;4.994;2024-02-21T14:45:47;10.90;99.90
48666;DHT22;34452;50.796;4.994;2024-02-21T14:48:13;10.90;99.90
48666;DHT22;34452;50.796;4.994;2024-02-21T14:50:38;10.90;99.90
48666;DHT22;34452;50.796;4.994;2024-02-21T14:53:04;10.90;99.90
48666;DHT22;34452;50.796;4.994;2024-02-21T14:55:30;10.80;99.90
48666;DHT22;34452;50.796;4.994;2024-02-21T14:57:56;10.80;99.90
48666;DHT22;34452;50.796;4.994;2024-02-21T15:00:21;10.70;99.90
48666;DHT22;34452;50.796;4.994;2024-02-21T15:02:55;10.70;99.90
48666;DHT22;34452;50.796;4.994;2024-02-21T15:05:20;10.60;99.90
48666;DHT22;34452;50.796;4.994;2024-02-21T15:07:46;10.60;99.90
48666;DHT22;34452;50.796;4.994;2024-02-21T15:10:12;10.50;99.90
48666;DHT22;34452;50.796;4.994;2024-02-21T15:12:37;10.50;99.90
48666;DHT22;34452;50.796;4.994;2024-02-21T15:15:03;10.40;99.90
48666;DHT22;34452;50.796;4.994;2024-02-21T15:17:29;10.40;99.90
48666;DHT22;34452;50.796;4.994;2024-02-21T15:19:55;10.30;99.90
48666;DHT22;34452;50.796;4.994;2024-02-21T15:22:21;10.30;99.90
48666;DHT22;34452;50.796;4.994;2024-02-21T15:24:48;10.30;99.90
48666;DHT22;34452;50.796;4.994;2024-02-21T15:27:14;10.20;99.90
48666;DHT22;34452;50.796;4.994;2024-02-21T15:29:40;10.20;99.90
48666;DHT22;34452;50.796;4.994;2024-02-21T15:32:06;10.10;99.90
48666;DHT22;34452;50.796;4.994;2024-02-21T15:34:32;10.10;99.90
48666;DHT22;34452;50.796;4.994;2024-02-21T15:36:57;10.10;99.90
48666;DHT22;34452;50.796;4.994;2024-02-21T15:39:23;10.00;99.90